createdAt,value
2016-08-18T00:00:31.685Z,0
2016-08-18T00:01:31.661Z,0
2016-08-18T00:02:31.661Z,0
2016-08-18T00:03:32.358Z,0
2016-08-18T00:04:31.622Z,0
2016-08-18T00:05:32.332Z,0
2016-08-18T00:06:31.582Z,0
2016-08-18T00:07:31.591Z,0
2016-08-18T00:08:31.562Z,0
2016-08-18T00:09:32.260Z,0
2016-08-18T00:10:32.251Z,0
2016-08-18T00:11:32.240Z,0
2016-08-18T00:12:31.496Z,0
2016-08-18T00:13:32.207Z,0
2016-08-18T00:14:32.192Z,0
2016-08-18T00:15:32.173Z,0
2016-08-18T00:16:31.462Z,0
2016-08-18T00:17:32.132Z,0
2016-08-18T00:18:31.431Z,0
2016-08-18T00:19:32.141Z,0
2016-08-18T00:20:31.385Z,0
2016-08-18T00:21:30.678Z,0
2016-08-18T00:22:32.099Z,0
2016-08-18T00:23:32.072Z,0
2016-08-18T00:24:29.893Z,0
2016-08-18T00:25:32.125Z,0
2016-08-18T00:26:32.012Z,0
2016-08-18T00:27:32.021Z,0
2016-08-18T00:28:30.578Z,0
2016-08-18T00:29:31.269Z,0
2016-08-18T00:30:31.960Z,0
2016-08-18T00:31:31.312Z,0
2016-08-18T00:32:31.222Z,0
2016-08-18T00:33:32.008Z,0
2016-08-18T00:34:31.188Z,0
2016-08-18T00:35:31.192Z,0
2016-08-18T00:36:31.159Z,0
2016-08-18T00:37:31.169Z,0
2016-08-18T00:38:31.141Z,0
2016-08-18T00:39:31.211Z,0
2016-08-18T00:40:31.815Z,0
2016-08-18T00:41:31.820Z,0
2016-08-18T00:42:31.799Z,0
2016-08-18T00:43:31.060Z,0
2016-08-18T00:44:31.060Z,0
2016-08-18T00:45:31.141Z,0
2016-08-18T00:46:31.738Z,0
2016-08-18T00:47:31.745Z,0
2016-08-18T00:48:30.270Z,0
2016-08-18T00:49:31.034Z,0
2016-08-18T00:50:31.676Z,0
2016-08-18T00:51:30.970Z,0
2016-08-18T00:52:31.660Z,0
2016-08-18T00:53:30.957Z,0
2016-08-18T00:54:31.615Z,0
2016-08-18T00:55:30.199Z,0
2016-08-18T00:56:31.602Z,0
2016-08-18T00:57:30.144Z,0
2016-08-18T00:58:30.859Z,0
2016-08-18T00:59:30.827Z,0
2016-08-18T01:00:30.825Z,0
2016-08-18T01:01:30.091Z,0
2016-08-18T01:02:30.808Z,0
2016-08-18T01:03:30.780Z,0
2016-08-18T01:04:30.164Z,0
2016-08-18T01:05:31.498Z,0
2016-08-18T01:06:30.050Z,0
2016-08-18T01:07:30.717Z,0
2016-08-18T01:08:30.699Z,0
2016-08-18T01:09:30.721Z,0
2016-08-18T01:10:30.681Z,0
2016-08-18T01:11:30.682Z,0
2016-08-18T01:12:30.648Z,0
2016-08-18T01:13:31.361Z,0
2016-08-18T01:14:31.331Z,0
2016-08-18T01:15:30.698Z,0
2016-08-18T01:16:31.291Z,0
2016-08-18T01:17:30.565Z,0
2016-08-18T01:18:31.265Z,0
2016-08-18T01:19:31.267Z,0
2016-08-18T01:20:31.251Z,0
2016-08-18T01:21:31.261Z,0
2016-08-18T01:22:31.222Z,0
2016-08-18T01:23:29.759Z,0
2016-08-18T01:24:31.190Z,0
2016-08-18T01:25:31.154Z,0
2016-08-18T01:26:30.431Z,0
2016-08-18T01:27:30.497Z,0
2016-08-18T01:28:31.140Z,0
2016-08-18T01:29:31.274Z,0
2016-08-18T01:30:30.377Z,0
2016-08-18T01:31:31.161Z,0
2016-08-18T01:32:31.078Z,0
2016-08-18T01:33:30.341Z,0
2016-08-18T01:34:31.033Z,0
2016-08-18T01:35:29.579Z,0
2016-08-18T01:36:30.288Z,0
2016-08-18T01:37:29.581Z,0
2016-08-18T01:38:30.969Z,0
2016-08-18T01:39:30.261Z,0
2016-08-18T01:40:29.520Z,0
2016-08-18T01:41:30.240Z,0
2016-08-18T01:42:30.911Z,0
2016-08-18T01:43:30.949Z,0
2016-08-18T01:44:30.170Z,0
2016-08-18T01:45:29.454Z,0
2016-08-18T01:46:30.159Z,0
2016-08-18T01:47:30.849Z,0
2016-08-18T01:48:30.819Z,0
2016-08-18T01:49:30.130Z,0
2016-08-18T01:50:30.810Z,0
2016-08-18T01:51:30.064Z,0
2016-08-18T01:52:30.780Z,0
2016-08-18T01:53:30.040Z,0
2016-08-18T01:54:30.038Z,0
2016-08-18T01:55:30.727Z,0
2016-08-18T01:56:30.714Z,0
2016-08-18T01:57:30.703Z,0
2016-08-18T01:58:30.039Z,0
2016-08-18T01:59:30.650Z,0
2016-08-18T02:00:30.649Z,0
2016-08-18T02:01:30.618Z,0
2016-08-18T02:02:29.274Z,0
2016-08-18T02:03:30.600Z,0
2016-08-18T02:04:30.605Z,0
2016-08-18T02:05:30.580Z,0
2016-08-18T02:06:30.623Z,0
2016-08-18T02:07:29.827Z,0
2016-08-18T02:08:30.526Z,0
2016-08-18T02:09:31.394Z,0
2016-08-18T02:10:29.836Z,0
2016-08-18T02:11:29.758Z,0
2016-08-18T02:12:30.627Z,0
2016-08-18T02:13:30.486Z,0
2016-08-18T02:14:29.755Z,0
2016-08-18T02:15:30.435Z,0
2016-08-18T02:16:30.452Z,0
2016-08-18T02:17:30.396Z,0
2016-08-18T02:18:30.429Z,0
2016-08-18T02:19:29.655Z,0
2016-08-18T02:20:30.428Z,0
2016-08-18T02:21:30.350Z,0
2016-08-18T02:22:30.421Z,0
2016-08-18T02:23:29.577Z,0
2016-08-18T02:24:29.696Z,0
2016-08-18T02:25:30.290Z,0
2016-08-18T02:26:29.591Z,0
2016-08-18T02:27:30.265Z,0
2016-08-18T02:28:30.262Z,0
2016-08-18T02:29:30.210Z,0
2016-08-18T02:30:30.210Z,0
2016-08-18T02:31:30.179Z,0
2016-08-18T02:32:30.235Z,0
2016-08-18T02:33:30.144Z,0
2016-08-18T02:34:28.709Z,0
2016-08-18T02:35:29.408Z,0
2016-08-18T02:36:28.767Z,0
2016-08-18T02:37:30.089Z,0
2016-08-18T02:38:30.090Z,0
2016-08-18T02:39:28.632Z,0
2016-08-18T02:40:30.078Z,0
2016-08-18T02:41:30.036Z,0
2016-08-18T02:42:30.050Z,0
2016-08-18T02:43:29.285Z,0
2016-08-18T02:44:30.030Z,0
2016-08-18T02:45:28.538Z,0
2016-08-18T02:46:27.879Z,0
2016-08-18T02:47:28.516Z,0
2016-08-18T02:48:28.497Z,0
2016-08-18T02:49:29.910Z,0
2016-08-18T02:50:29.189Z,0
2016-08-18T02:51:29.864Z,0
2016-08-18T02:52:29.160Z,0
2016-08-18T02:53:29.864Z,0
2016-08-18T02:54:29.880Z,0
2016-08-18T02:55:29.099Z,0
2016-08-18T02:56:28.437Z,0
2016-08-18T02:57:29.794Z,0
2016-08-18T02:58:29.819Z,0
2016-08-18T02:59:28.320Z,0
2016-08-18T03:00:29.738Z,0
2016-08-18T03:01:29.730Z,0
2016-08-18T03:02:29.730Z,0
2016-08-18T03:03:29.696Z,0
2016-08-18T03:04:29.727Z,0
2016-08-18T03:05:29.675Z,0
2016-08-18T03:06:28.939Z,0
2016-08-18T03:07:29.659Z,0
2016-08-18T03:08:29.806Z,0
2016-08-18T03:09:29.597Z,0
2016-08-18T03:10:28.157Z,0
2016-08-18T03:11:28.872Z,0
2016-08-18T03:12:29.564Z,0
2016-08-18T03:13:29.566Z,0
2016-08-18T03:14:29.519Z,0
2016-08-18T03:15:29.525Z,0
2016-08-18T03:16:28.789Z,0
2016-08-18T03:17:28.760Z,0
2016-08-18T03:18:29.514Z,0
2016-08-18T03:19:29.454Z,0
2016-08-18T03:20:27.996Z,0
2016-08-18T03:21:29.413Z,0
2016-08-18T03:22:29.416Z,0
2016-08-18T03:23:28.680Z,0
2016-08-18T03:24:29.409Z,0
2016-08-18T03:25:29.349Z,0
2016-08-18T03:26:27.927Z,0
2016-08-18T03:27:28.617Z,0
2016-08-18T03:28:28.599Z,0
2016-08-18T03:29:28.595Z,0
2016-08-18T03:30:29.286Z,0
2016-08-18T03:31:28.546Z,0
2016-08-18T03:32:28.542Z,0
2016-08-18T03:33:29.222Z,0
2016-08-18T03:34:29.249Z,0
2016-08-18T03:35:29.198Z,0
2016-08-18T03:36:28.470Z,0
2016-08-18T03:37:29.187Z,0
2016-08-18T03:38:29.170Z,0
2016-08-18T03:39:28.417Z,0
2016-08-18T03:40:29.124Z,0
2016-08-18T03:41:29.109Z,0
2016-08-18T03:42:29.078Z,0
2016-08-18T03:43:29.079Z,0
2016-08-18T03:44:29.069Z,0
2016-08-18T03:45:28.336Z,0
2016-08-18T03:46:29.028Z,0
2016-08-18T03:47:29.019Z,0
2016-08-18T03:48:28.988Z,0
2016-08-18T03:49:28.976Z,0
2016-08-18T03:50:29.020Z,0
2016-08-18T03:51:28.951Z,0
2016-08-18T03:52:28.936Z,0
2016-08-18T03:53:28.205Z,0
2016-08-18T03:54:28.900Z,0
2016-08-18T03:55:28.170Z,0
2016-08-18T03:56:27.429Z,0
2016-08-18T03:57:28.859Z,0
2016-08-18T03:58:28.859Z,0
2016-08-18T03:59:28.829Z,0
2016-08-18T04:00:28.099Z,0
2016-08-18T04:01:28.074Z,0
2016-08-18T04:02:28.819Z,0
2016-08-18T04:03:28.770Z,0
2016-08-18T04:04:28.759Z,0
2016-08-18T04:05:28.043Z,0
2016-08-18T04:06:28.007Z,0
2016-08-18T04:07:28.699Z,0
2016-08-18T04:08:28.670Z,0
2016-08-18T04:09:28.670Z,0
2016-08-18T04:10:27.934Z,0
2016-08-18T04:11:28.716Z,0
2016-08-18T04:12:27.910Z,0
2016-08-18T04:13:28.718Z,0
2016-08-18T04:14:28.589Z,0
2016-08-18T04:15:27.869Z,0
2016-08-18T04:16:28.559Z,0
2016-08-18T04:17:28.550Z,0
2016-08-18T04:18:28.528Z,0
2016-08-18T04:19:27.129Z,0
2016-08-18T04:20:27.779Z,0
2016-08-18T04:21:27.760Z,5
2016-08-18T04:22:28.464Z,5
2016-08-18T04:23:27.799Z,5
2016-08-18T04:24:28.419Z,5
2016-08-18T04:25:28.439Z,5
2016-08-18T04:26:28.396Z,5
2016-08-18T04:27:28.419Z,5
2016-08-18T04:28:28.360Z,5
2016-08-18T04:29:27.618Z,5
2016-08-18T04:30:27.632Z,5
2016-08-18T04:31:28.328Z,5
2016-08-18T04:32:28.307Z,10
2016-08-18T04:33:28.320Z,10
2016-08-18T04:34:27.546Z,10
2016-08-18T04:35:28.290Z,10
2016-08-18T04:36:27.529Z,10
2016-08-18T04:37:28.242Z,10
2016-08-18T04:38:27.487Z,10
2016-08-18T04:39:28.215Z,10
2016-08-18T04:40:28.200Z,15
2016-08-18T04:41:28.269Z,15
2016-08-18T04:42:27.429Z,15
2016-08-18T04:43:28.139Z,15
2016-08-18T04:44:27.396Z,15
2016-08-18T04:45:28.097Z,15
2016-08-18T04:46:28.087Z,15
2016-08-18T04:47:28.069Z,15
2016-08-18T04:48:28.056Z,20
2016-08-18T04:49:27.416Z,20
2016-08-18T04:50:28.023Z,20
2016-08-18T04:51:28.116Z,20
2016-08-18T04:52:27.269Z,20
2016-08-18T04:53:27.979Z,20
2016-08-18T04:54:27.959Z,20
2016-08-18T04:55:28.037Z,25
2016-08-18T04:56:27.919Z,25
2016-08-18T04:57:27.271Z,25
2016-08-18T04:58:27.897Z,25
2016-08-18T04:59:27.165Z,25
2016-08-18T05:00:27.149Z,25
2016-08-18T05:01:27.867Z,25
2016-08-18T05:02:27.816Z,30
2016-08-18T05:03:27.845Z,30
2016-08-18T05:04:27.068Z,30
2016-08-18T05:05:26.360Z,30
2016-08-18T05:06:27.770Z,30
2016-08-18T05:07:27.769Z,30
2016-08-18T05:08:26.299Z,30
2016-08-18T05:09:26.338Z,35
2016-08-18T05:10:26.263Z,35
2016-08-18T05:11:26.956Z,35
2016-08-18T05:12:27.658Z,35
2016-08-18T05:13:26.991Z,35
2016-08-18T05:14:26.933Z,35
2016-08-18T05:15:26.911Z,35
2016-08-18T05:16:27.616Z,40
2016-08-18T05:17:26.887Z,40
2016-08-18T05:18:26.845Z,40
2016-08-18T05:19:27.608Z,40
2016-08-18T05:20:26.823Z,40
2016-08-18T05:21:26.096Z,40
2016-08-18T05:22:26.086Z,40
2016-08-18T05:23:27.487Z,45
2016-08-18T05:24:27.486Z,45
2016-08-18T05:25:26.773Z,45
2016-08-18T05:26:26.057Z,45
2016-08-18T05:27:27.436Z,45
2016-08-18T05:28:25.991Z,45
2016-08-18T05:29:27.408Z,45
2016-08-18T05:30:27.394Z,45
2016-08-18T05:31:26.649Z,45
2016-08-18T05:32:26.639Z,50
2016-08-18T05:33:25.923Z,50
2016-08-18T05:34:27.326Z,50
2016-08-18T05:35:26.595Z,50
2016-08-18T05:36:27.290Z,50
2016-08-18T05:37:27.305Z,50
2016-08-18T05:38:27.246Z,50
2016-08-18T05:39:26.532Z,55
2016-08-18T05:40:26.522Z,55
2016-08-18T05:41:26.520Z,55
2016-08-18T05:42:27.187Z,55
2016-08-18T05:43:27.176Z,55
2016-08-18T05:44:27.158Z,55
2016-08-18T05:45:26.428Z,55
2016-08-18T05:46:27.239Z,55
2016-08-18T05:47:27.149Z,60
2016-08-18T05:48:26.406Z,60
2016-08-18T05:49:26.356Z,60
2016-08-18T05:50:26.359Z,60
2016-08-18T05:51:26.340Z,60
2016-08-18T05:52:26.324Z,60
2016-08-18T05:53:26.411Z,60
2016-08-18T05:54:26.378Z,65
2016-08-18T05:55:27.011Z,65
2016-08-18T05:56:25.560Z,65
2016-08-18T05:57:26.977Z,65
2016-08-18T05:58:26.937Z,65
2016-08-18T05:59:26.947Z,65
2016-08-18T06:00:25.545Z,65
2016-08-18T06:01:26.916Z,65
2016-08-18T06:02:24.755Z,70
2016-08-18T06:03:26.957Z,70
2016-08-18T06:04:25.408Z,70
2016-08-18T06:05:26.122Z,70
2016-08-18T06:06:26.120Z,70
2016-08-18T06:07:25.377Z,70
2016-08-18T06:08:24.657Z,70
2016-08-18T06:09:24.647Z,75
2016-08-18T06:10:25.392Z,75
2016-08-18T06:11:26.808Z,75
2016-08-18T06:12:26.018Z,75
2016-08-18T06:13:26.049Z,75
2016-08-18T06:14:26.704Z,75
2016-08-18T06:15:26.730Z,75
2016-08-18T06:16:25.957Z,75
2016-08-18T06:17:26.671Z,75
2016-08-18T06:18:25.934Z,75
2016-08-18T06:19:26.630Z,75
2016-08-18T06:20:25.900Z,75
2016-08-18T06:21:26.598Z,75
2016-08-18T06:22:26.601Z,75
2016-08-18T06:23:26.579Z,80
2016-08-18T06:24:25.840Z,80
2016-08-18T06:25:25.818Z,80
2016-08-18T06:26:25.818Z,80
2016-08-18T06:27:25.818Z,80
2016-08-18T06:28:25.060Z,80
2016-08-18T06:29:25.061Z,80
2016-08-18T06:30:25.244Z,85
2016-08-18T06:31:26.472Z,85
2016-08-18T06:32:25.029Z,85
2016-08-18T06:33:25.010Z,85
2016-08-18T06:34:24.244Z,85
2016-08-18T06:35:24.958Z,85
2016-08-18T06:36:26.391Z,85
2016-08-18T06:37:26.368Z,90
2016-08-18T06:38:25.626Z,90
2016-08-18T06:39:26.338Z,90
2016-08-18T06:40:24.220Z,90
2016-08-18T06:41:26.307Z,90
2016-08-18T06:42:26.319Z,90
2016-08-18T06:43:25.540Z,95
2016-08-18T06:44:26.300Z,95
2016-08-18T06:45:25.667Z,95
2016-08-18T06:46:26.232Z,95
2016-08-18T06:47:25.848Z,95
2016-08-18T06:48:26.278Z,100
2016-08-18T06:49:26.181Z,100
2016-08-18T06:50:25.509Z,100
2016-08-18T06:51:25.454Z,100
2016-08-18T06:52:25.512Z,100
2016-08-18T06:53:25.409Z,105
2016-08-18T06:54:25.404Z,105
2016-08-18T06:55:26.124Z,105
2016-08-18T06:56:25.509Z,105
2016-08-18T06:57:26.069Z,110
2016-08-18T06:58:25.386Z,110
2016-08-18T06:59:25.331Z,110
2016-08-18T07:00:25.328Z,115
2016-08-18T07:01:26.020Z,110
2016-08-18T07:02:25.331Z,110
2016-08-18T07:03:25.261Z,115
2016-08-18T07:04:24.548Z,115
2016-08-18T07:05:26.075Z,115
2016-08-18T07:06:25.317Z,115
2016-08-18T07:07:24.515Z,120
2016-08-18T07:08:25.199Z,125
2016-08-18T07:09:23.767Z,125
2016-08-18T07:10:24.459Z,125
2016-08-18T07:11:24.664Z,130
2016-08-18T07:12:25.859Z,130
2016-08-18T07:13:24.410Z,135
2016-08-18T07:14:25.872Z,135
2016-08-18T07:15:24.390Z,145
2016-08-18T07:16:25.881Z,280
2016-08-18T07:17:25.790Z,545
2016-08-18T07:18:24.360Z,850
2016-08-18T07:19:25.071Z,1150
2016-08-18T07:20:25.160Z,1395
2016-08-18T07:21:25.015Z,1490
2016-08-18T07:22:25.095Z,1485
2016-08-18T07:23:25.026Z,1435
2016-08-18T07:24:25.051Z,1410
2016-08-18T07:25:24.491Z,1405
2016-08-18T07:26:25.743Z,1415
2016-08-18T07:27:24.998Z,1430
2016-08-18T07:28:25.668Z,1415
2016-08-18T07:29:25.678Z,1410
2016-08-18T07:30:24.971Z,1430
2016-08-18T07:31:25.661Z,1490
2016-08-18T07:32:24.971Z,1510
2016-08-18T07:33:24.211Z,1490
2016-08-18T07:34:24.983Z,1475
2016-08-18T07:35:25.682Z,1450
2016-08-18T07:36:32.858Z,1435
2016-08-18T07:37:24.272Z,1435
2016-08-18T07:38:25.616Z,1525
2016-08-18T07:39:24.940Z,1685
2016-08-18T07:40:25.021Z,1710
2016-08-18T07:41:25.643Z,1575
2016-08-18T07:42:25.619Z,1455
2016-08-18T07:43:24.897Z,1450
2016-08-18T07:44:24.951Z,1460
2016-08-18T07:45:24.295Z,1500
2016-08-18T07:46:24.938Z,1580
2016-08-18T07:47:25.598Z,1620
2016-08-18T07:48:24.871Z,1605
2016-08-18T07:49:24.938Z,1555
2016-08-18T07:50:24.979Z,1500
2016-08-18T07:51:26.533Z,1490
2016-08-18T07:52:25.595Z,1565
2016-08-18T07:53:24.985Z,1635
2016-08-18T07:54:24.153Z,1660
2016-08-18T07:55:25.648Z,1640
2016-08-18T07:56:25.580Z,1600
2016-08-18T07:57:25.640Z,1530
2016-08-18T07:58:24.150Z,1435
2016-08-18T07:59:24.889Z,1430
2016-08-18T08:00:24.259Z,1555
2016-08-18T08:01:24.914Z,1675
2016-08-18T08:02:24.877Z,1640
2016-08-18T08:03:24.877Z,1520
2016-08-18T08:04:25.597Z,1500
2016-08-18T08:05:24.301Z,1585
2016-08-18T08:06:24.870Z,1580
2016-08-18T08:07:24.877Z,1530
2016-08-18T08:08:24.156Z,1585
2016-08-18T08:09:25.599Z,1640
2016-08-18T08:10:24.887Z,1575
2016-08-18T08:11:25.608Z,1505
2016-08-18T08:12:25.608Z,1555
2016-08-18T08:13:24.934Z,1605
2016-08-18T08:14:24.198Z,1595
2016-08-18T08:15:24.329Z,1515
2016-08-18T08:16:24.218Z,1485
2016-08-18T08:17:24.919Z,1520
2016-08-18T08:18:25.716Z,1610
2016-08-18T08:19:25.641Z,1625
2016-08-18T08:20:25.135Z,1520
2016-08-18T08:21:24.987Z,1490
2016-08-18T08:22:24.938Z,1585
2016-08-18T08:23:24.927Z,1625
2016-08-18T08:24:24.257Z,1545
2016-08-18T08:25:27.202Z,1475
2016-08-18T08:26:26.037Z,1500
2016-08-18T08:27:23.540Z,1530
2016-08-18T08:28:24.948Z,1560
2016-08-18T08:29:24.265Z,1550
2016-08-18T08:30:24.248Z,1565
2016-08-18T08:31:25.290Z,1515
2016-08-18T08:32:24.254Z,1505
2016-08-18T08:33:24.980Z,1645
2016-08-18T08:34:24.632Z,1685
2016-08-18T08:35:29.362Z,1560
2016-08-18T08:36:25.727Z,1460
2016-08-18T08:37:24.337Z,1450
2016-08-18T08:38:25.990Z,1535
2016-08-18T08:39:24.365Z,1595
2016-08-18T08:40:27.747Z,1545
2016-08-18T08:41:24.304Z,1525
2016-08-18T08:42:25.016Z,1520
2016-08-18T08:43:24.287Z,1520
2016-08-18T08:44:25.017Z,1390
2016-08-18T08:45:26.376Z,1485
2016-08-18T08:46:25.019Z,1550
2016-08-18T08:47:25.081Z,1465
2016-08-18T08:48:25.760Z,1515
2016-08-18T08:49:25.059Z,1595
2016-08-18T08:50:26.251Z,1555
2016-08-18T08:51:25.060Z,1520
2016-08-18T08:52:24.480Z,1535
2016-08-18T08:53:25.087Z,1545
2016-08-18T08:54:25.113Z,1455
2016-08-18T08:55:25.817Z,1390
2016-08-18T08:56:24.827Z,1525
2016-08-18T08:57:26.058Z,1490
2016-08-18T08:58:25.719Z,1415
2016-08-18T08:59:25.277Z,1500
2016-08-18T09:00:25.958Z,1545
2016-08-18T09:01:24.495Z,1520
2016-08-18T09:02:25.136Z,1430
2016-08-18T09:03:24.408Z,1405
2016-08-18T09:04:25.857Z,1625
2016-08-18T09:05:25.148Z,1595
2016-08-18T09:06:25.137Z,1475
2016-08-18T09:07:25.141Z,1490
2016-08-18T09:08:24.446Z,1350
2016-08-18T09:09:25.192Z,1390
2016-08-18T09:10:26.158Z,1690
2016-08-18T09:11:23.712Z,1550
2016-08-18T09:12:25.179Z,1420
2016-08-18T09:13:25.881Z,1470
2016-08-18T09:14:25.880Z,1490
2016-08-18T09:15:25.327Z,1525
2016-08-18T09:16:24.457Z,1455
2016-08-18T09:17:24.485Z,1405
2016-08-18T09:18:25.897Z,1465
2016-08-18T09:19:25.204Z,1510
2016-08-18T09:20:25.774Z,1500
2016-08-18T09:21:23.778Z,1445
2016-08-18T09:22:24.492Z,1465
2016-08-18T09:23:26.011Z,1485
2016-08-18T09:24:23.867Z,1435
2016-08-18T09:25:26.238Z,1350
2016-08-18T09:26:24.561Z,1415
2016-08-18T09:27:25.305Z,1410
2016-08-18T09:28:23.838Z,1360
2016-08-18T09:29:26.096Z,1360
2016-08-18T09:30:26.127Z,1355
2016-08-18T09:31:24.542Z,1395
2016-08-18T09:32:23.848Z,1465
2016-08-18T09:33:25.408Z,1385
2016-08-18T09:34:25.244Z,1410
2016-08-18T09:35:28.520Z,1420
2016-08-18T09:36:27.442Z,1255
2016-08-18T09:37:26.095Z,1250
2016-08-18T09:38:26.027Z,1375
2016-08-18T09:39:24.562Z,1360
2016-08-18T09:40:25.816Z,1330
2016-08-18T09:41:26.040Z,1360
2016-08-18T09:42:25.365Z,1330
2016-08-18T09:43:24.615Z,1160
2016-08-18T09:44:24.627Z,1080
2016-08-18T09:45:26.750Z,1235
2016-08-18T09:46:25.363Z,1375
2016-08-18T09:47:26.041Z,1310
2016-08-18T09:48:24.622Z,1170
2016-08-18T09:49:25.337Z,1215
2016-08-18T09:50:26.560Z,1290
2016-08-18T09:51:25.368Z,1290
2016-08-18T09:52:24.641Z,1235
2016-08-18T09:53:25.339Z,1240
2016-08-18T09:54:25.380Z,1280
2016-08-18T09:55:26.031Z,1180
2016-08-18T09:56:25.357Z,1230
2016-08-18T09:57:25.417Z,1265
2016-08-18T09:58:23.971Z,1200
2016-08-18T09:59:25.381Z,1170
2016-08-18T10:00:24.796Z,1070
2016-08-18T10:01:25.647Z,1015
2016-08-18T10:02:24.696Z,1130
2016-08-18T10:03:24.658Z,1110
2016-08-18T10:04:25.418Z,1070
2016-08-18T10:05:26.767Z,1110
2016-08-18T10:06:24.700Z,1140
2016-08-18T10:07:25.541Z,1120
2016-08-18T10:08:25.389Z,1110
2016-08-18T10:09:25.437Z,1060
2016-08-18T10:10:51.418Z,980
2016-08-18T10:11:26.573Z,970
2016-08-18T10:12:26.337Z,1035
2016-08-18T10:13:24.680Z,995
2016-08-18T10:14:24.678Z,935
2016-08-18T10:15:26.554Z,650
2016-08-18T10:16:25.409Z,340
2016-08-18T10:17:26.112Z,315
2016-08-18T10:18:25.396Z,305
2016-08-18T10:19:25.388Z,305
2016-08-18T10:20:24.689Z,300
2016-08-18T10:21:26.099Z,300
2016-08-18T10:22:25.440Z,300
2016-08-18T10:23:25.388Z,295
2016-08-18T10:24:24.699Z,295
2016-08-18T10:25:25.116Z,295
2016-08-18T10:26:25.369Z,295
2016-08-18T10:27:26.088Z,295
2016-08-18T10:28:25.468Z,295
2016-08-18T10:29:25.387Z,295
2016-08-18T10:30:26.862Z,290
2016-08-18T10:31:26.107Z,290
2016-08-18T10:32:25.375Z,295
2016-08-18T10:33:25.364Z,290
2016-08-18T10:34:26.069Z,295
2016-08-18T10:35:25.352Z,290
2016-08-18T10:36:24.637Z,295
2016-08-18T10:37:25.354Z,295
2016-08-18T10:38:25.359Z,295
2016-08-18T10:39:25.346Z,295
2016-08-18T10:40:25.358Z,300
2016-08-18T10:41:23.949Z,295
2016-08-18T10:42:25.340Z,290
2016-08-18T10:43:23.969Z,290
2016-08-18T10:44:23.882Z,295
2016-08-18T10:45:26.554Z,295
2016-08-18T10:46:24.610Z,300
2016-08-18T10:47:26.058Z,295
2016-08-18T10:48:25.306Z,295
2016-08-18T10:49:25.305Z,290
2016-08-18T10:50:26.039Z,295
2016-08-18T10:51:26.082Z,290
2016-08-18T10:52:24.571Z,290
2016-08-18T10:53:26.115Z,290
2016-08-18T10:54:24.571Z,290
2016-08-18T10:55:26.329Z,290
2016-08-18T10:56:25.994Z,290
2016-08-18T10:57:26.005Z,290
2016-08-18T10:58:25.285Z,290
2016-08-18T10:59:25.266Z,290
2016-08-18T11:00:26.272Z,290
2016-08-18T11:01:25.265Z,290
2016-08-18T11:02:25.258Z,290
2016-08-18T11:03:25.259Z,290
2016-08-18T11:04:25.236Z,290
2016-08-18T11:05:25.395Z,295
2016-08-18T11:06:25.248Z,290
2016-08-18T11:07:25.258Z,290
2016-08-18T11:08:25.289Z,295
2016-08-18T11:09:25.256Z,295
2016-08-18T11:10:24.520Z,290
2016-08-18T11:11:24.494Z,290
2016-08-18T11:12:25.257Z,290
2016-08-18T11:13:25.225Z,290
2016-08-18T11:14:25.927Z,290
2016-08-18T11:15:25.268Z,295
2016-08-18T11:16:25.198Z,290
2016-08-18T11:17:25.207Z,290
2016-08-18T11:18:24.482Z,290
2016-08-18T11:19:25.217Z,290
2016-08-18T11:20:26.287Z,290
2016-08-18T11:21:25.203Z,285
2016-08-18T11:22:25.195Z,285
2016-08-18T11:23:25.195Z,285
2016-08-18T11:24:25.188Z,285
2016-08-18T11:25:24.565Z,285
2016-08-18T11:26:25.247Z,285
2016-08-18T11:27:25.168Z,285
2016-08-18T11:28:25.969Z,285
2016-08-18T11:29:25.187Z,285
2016-08-18T11:30:25.913Z,285
2016-08-18T11:31:25.155Z,285
2016-08-18T11:32:25.161Z,285
2016-08-18T11:33:25.894Z,285
2016-08-18T11:34:25.233Z,285
2016-08-18T11:35:24.778Z,290
2016-08-18T11:36:25.876Z,285
2016-08-18T11:37:25.124Z,285
2016-08-18T11:38:25.902Z,285
2016-08-18T11:39:25.835Z,285
2016-08-18T11:40:26.308Z,285
2016-08-18T11:41:25.849Z,285
2016-08-18T11:42:25.823Z,285
2016-08-18T11:43:25.116Z,285
2016-08-18T11:44:24.542Z,285
2016-08-18T11:45:25.825Z,285
2016-08-18T11:46:25.817Z,285
2016-08-18T11:47:25.290Z,285
2016-08-18T11:48:23.814Z,285
2016-08-18T11:49:24.454Z,285
2016-08-18T11:50:25.807Z,285
2016-08-18T11:51:25.807Z,285
2016-08-18T11:52:25.073Z,285
2016-08-18T11:53:25.893Z,285
2016-08-18T11:54:25.778Z,285
2016-08-18T11:55:26.528Z,285
2016-08-18T11:56:25.769Z,285
2016-08-18T12:12:04.983Z,280
2016-08-18T12:13:04.134Z,280
2016-08-18T12:14:04.151Z,280
2016-08-18T12:15:04.743Z,285
2016-08-18T12:16:04.794Z,285
2016-08-18T12:17:04.724Z,280
2016-08-18T12:18:05.453Z,280
2016-08-18T12:19:04.018Z,280
2016-08-18T12:20:04.813Z,285
2016-08-18T12:21:05.445Z,280
2016-08-18T12:22:04.737Z,280
2016-08-18T12:23:04.055Z,280
2016-08-18T12:24:04.001Z,280
2016-08-18T12:25:03.324Z,275
2016-08-18T12:26:04.703Z,280
2016-08-18T12:27:05.414Z,285
2016-08-18T12:28:04.059Z,280
2016-08-18T12:29:03.974Z,285
2016-08-18T12:30:05.383Z,285
2016-08-18T12:31:04.701Z,285
2016-08-18T12:32:04.689Z,275
2016-08-18T12:33:05.394Z,275
2016-08-18T12:34:05.395Z,275
2016-08-18T12:35:05.386Z,275
2016-08-18T12:36:04.653Z,280
2016-08-18T12:37:04.657Z,275
2016-08-18T12:38:03.941Z,280
2016-08-18T12:39:05.376Z,275
2016-08-18T12:40:03.210Z,275
2016-08-18T12:41:05.356Z,275
2016-08-18T12:42:05.372Z,270
2016-08-18T12:43:05.344Z,270
2016-08-18T12:44:04.638Z,270
2016-08-18T12:45:03.914Z,270
2016-08-18T12:46:05.331Z,270
2016-08-18T12:47:04.656Z,270
2016-08-18T12:48:04.627Z,265
2016-08-18T12:49:03.891Z,265
2016-08-18T12:50:04.603Z,265
2016-08-18T12:51:05.318Z,270
2016-08-18T12:52:04.613Z,270
2016-08-18T12:53:04.600Z,270
2016-08-18T12:54:04.585Z,265
2016-08-18T12:55:04.596Z,265
2016-08-18T12:56:05.305Z,265
2016-08-18T12:57:04.581Z,265
2016-08-18T12:58:04.673Z,265
2016-08-18T12:59:04.654Z,265
2016-08-18T13:00:04.614Z,250
2016-08-18T13:01:03.860Z,250
2016-08-18T13:02:03.855Z,245
2016-08-18T13:03:04.656Z,245
2016-08-18T13:04:05.273Z,245
2016-08-18T13:05:05.274Z,245
2016-08-18T13:06:05.256Z,245
2016-08-18T13:07:04.566Z,245
2016-08-18T13:08:04.533Z,245
2016-08-18T13:09:05.256Z,245
2016-08-18T13:10:03.823Z,245
2016-08-18T13:11:05.263Z,250
2016-08-18T13:12:03.846Z,245
2016-08-18T13:13:04.534Z,255
2016-08-18T13:14:04.545Z,255
2016-08-18T13:15:02.369Z,260
2016-08-18T13:16:03.814Z,255
2016-08-18T13:17:04.504Z,255
2016-08-18T13:18:05.250Z,255
2016-08-18T13:19:03.086Z,255
2016-08-18T13:20:04.492Z,255
2016-08-18T13:21:03.934Z,255
2016-08-18T13:22:05.216Z,255
2016-08-18T13:23:03.086Z,255
2016-08-18T13:24:05.217Z,255
2016-08-18T13:25:03.055Z,255
2016-08-18T13:26:05.215Z,250
2016-08-18T13:27:04.485Z,250
2016-08-18T13:28:05.202Z,250
2016-08-18T13:29:03.786Z,250
2016-08-18T13:30:03.773Z,250
2016-08-18T13:31:04.476Z,245
2016-08-18T13:32:03.755Z,250
2016-08-18T13:33:04.482Z,250
2016-08-18T13:34:04.493Z,250
2016-08-18T13:35:04.457Z,250
2016-08-18T13:36:03.724Z,255
2016-08-18T13:37:04.429Z,250
2016-08-18T13:38:04.447Z,250
2016-08-18T13:39:03.709Z,250
2016-08-18T13:40:04.450Z,250
2016-08-18T13:41:04.494Z,250
2016-08-18T13:42:03.738Z,250
2016-08-18T13:43:03.690Z,250
2016-08-18T13:44:03.704Z,250
2016-08-18T13:45:02.251Z,250
2016-08-18T13:46:04.429Z,250
2016-08-18T13:47:04.462Z,245
2016-08-18T13:48:05.128Z,245
2016-08-18T13:49:02.260Z,245
2016-08-18T13:50:03.676Z,245
2016-08-18T13:51:03.672Z,245
2016-08-18T13:52:03.658Z,240
2016-08-18T13:53:04.376Z,240
2016-08-18T13:54:03.714Z,240
2016-08-18T13:55:05.175Z,240
2016-08-18T13:56:04.376Z,240
2016-08-18T13:57:03.649Z,240
2016-08-18T13:58:05.071Z,240
2016-08-18T13:59:05.102Z,235
2016-08-18T14:00:05.070Z,235
2016-08-18T14:01:04.352Z,240
2016-08-18T14:02:04.400Z,240
2016-08-18T14:03:05.037Z,220
2016-08-18T14:04:03.709Z,240
2016-08-18T14:05:05.116Z,240
2016-08-18T14:06:04.324Z,235
2016-08-18T14:07:03.600Z,235
2016-08-18T14:08:05.043Z,235
2016-08-18T14:09:04.307Z,235
2016-08-18T14:10:05.016Z,235
2016-08-18T14:11:04.301Z,235
2016-08-18T14:12:04.294Z,235
2016-08-18T14:13:03.600Z,235
2016-08-18T14:14:04.341Z,235
2016-08-18T14:15:05.007Z,235
2016-08-18T14:16:05.007Z,230
2016-08-18T14:17:04.987Z,230
2016-08-18T14:18:05.062Z,230